Time,TemperatureF,DewpointF,PressureIn,WindDirection,WindDirectionDegrees,WindSpeedMPH,WindSpeedGustMPH,Humidity,HourlyPrecipIn,Conditions,Clouds,dailyrainin,SolarRadiationWatts/m^2,SoftwareType,DateUTC
2013-04-29 00:02:00,56.0,52.8,29.92,NNE,14,0.0,0.0,89,0.00,RA,,0.00,0.0,WeatherDisplay:10.37,2013-04-29 05:02:00,
2013-04-29 00:07:00,55.9,52.7,29.93,NNE,14,0.9,2.3,89,0.00,RA,,0.00,0.0,WeatherDisplay:10.37,2013-04-29 05:07:00,
2013-04-29 00:12:00,55.9,52.4,29.93,NNE,14,0.1,1.3,88,0.00,CLR,,0.00,0.0,WeatherDisplay:10.37,2013-04-29 05:12:00,
2013-04-29 00:17:00,55.9,52.4,29.93,NNE,14,1.8,2.3,88,0.00,CLR,,0.00,0.0,WeatherDisplay:10.37,2013-04-29 05:17:00,
2013-04-29 00:22:00,55.9,52.7,29.93,NNE,14,0.0,3.0,89,0.00,CLR,,0.00,0.0,WeatherDisplay:10.37,2013-04-29 05:22:00,
2013-04-29 00:27:00,55.9,52.4,29.93,NNE,14,0.0,0.0,88,0.00,CLR,,0.00,0.0,WeatherDisplay:10.37,2013-04-29 05:27:00,
2013-04-29 00:32:00,55.7,52.2,29.92,NNE,14,0.0,0.0,88,0.00,CLR,,0.00,0.0,WeatherDisplay:10.37,2013-04-29 05:32:00,
2013-04-29 00:38:00,55.7,52.2,29.92,NNE,14,0.1,1.1,88,0.00,CLR,,0.00,0.0,WeatherDisplay:10.37,2013-04-29 05:38:00,
2013-04-29 00:43:00,55.5,52.0,29.92,NNE,14,0.0,0.0,88,0.00,CLR,,0.00,0.0,WeatherDisplay:10.37,2013-04-29 05:43:00,
2013-04-29 00:48:00,55.5,52.3,29.92,NNE,14,0.0,0.0,89,0.00,CLR,,0.00,0.0,WeatherDisplay:10.37,2013-04-29 05:48:00,
2013-04-29 00:53:00,55.5,52.3,29.93,NNE,14,0.0,3.0,89,0.00,CLR,,0.00,0.0,WeatherDisplay:10.37,2013-04-29 05:53:00,
2013-04-29 00:57:00,55.8,52.3,29.93,NNE,14,0.0,0.0,88,0.00,CLR,,0.00,0.0,WeatherDisplay:10.37,2013-04-29 05:57:00,
2013-04-29 01:02:00,55.7,52.2,29.92,NNE,14,0.0,0.0,88,0.00,CLR,,0.00,0.0,WeatherDisplay:10.37,2013-04-29 06:02:00,
2013-04-29 01:08:00,55.6,52.1,29.92,NNE,14,0.0,0.0,88,0.00,CLR,,0.00,0.0,WeatherDisplay:10.37,2013-04-29 06:08:00,
2013-04-29 01:12:00,55.5,52.0,29.92,NNE,14,0.0,0.0,88,0.00,CLR,,0.00,0.0,WeatherDisplay:10.37,2013-04-29 06:12:00,
2013-04-29 01:17:00,55.3,51.8,29.92,NNE,14,0.0,0.0,88,0.00,CLR,,0.00,0.0,WeatherDisplay:10.37,2013-04-29 06:17:00,
2013-04-29 01:22:00,55.2,51.7,29.92,NNE,14,0.0,0.0,88,0.00,CLR,,0.00,0.0,WeatherDisplay:10.37,2013-04-29 06:22:00,
2013-04-29 01:27:00,55.0,51.8,29.91,NNE,14,0.0,0.0,89,0.00,CLR,,0.00,0.0,WeatherDisplay:10.37,2013-04-29 06:27:00,
2013-04-29 01:32:00,55.1,51.9,29.91,NNE,14,0.0,0.0,89,0.00,CLR,,0.00,0.0,WeatherDisplay:10.37,2013-04-29 06:32:00,
2013-04-29 01:38:00,55.3,51.8,29.91,NNE,14,0.0,0.0,88,0.00,CLR,,0.00,0.0,WeatherDisplay:10.37,2013-04-29 06:38:00,
2013-04-29 01:43:00,55.1,51.6,29.91,NNE,14,0.0,0.0,88,0.00,CLR,,0.00,0.0,WeatherDisplay:10.37,2013-04-29 06:43:00,
2013-04-29 01:48:00,55.0,51.8,29.91,NNE,14,0.0,0.0,89,0.00,CLR,,0.00,0.0,WeatherDisplay:10.37,2013-04-29 06:48:00,
2013-04-29 01:53:00,54.9,51.7,29.91,NNE,14,0.0,0.0,89,0.00,CLR,,0.00,0.0,WeatherDisplay:10.37,2013-04-29 06:53:00,
2013-04-29 01:58:00,54.8,51.6,29.91,NNE,14,0.0,0.0,89,0.00,CLR,,0.00,0.0,WeatherDisplay:10.37,2013-04-29 06:58:00,
2013-04-29 02:03:00,54.7,51.8,29.91,NNE,14,0.0,0.0,90,0.00,CLR,,0.00,0.0,WeatherDisplay:10.37,2013-04-29 07:03:00,
2013-04-29 02:08:00,54.7,51.5,29.90,NNE,14,0.0,0.0,89,0.00,CLR,,0.00,0.0,WeatherDisplay:10.37,2013-04-29 07:08:00,
2013-04-29 02:13:00,54.6,51.4,29.90,NNE,14,0.0,0.0,89,0.00,CLR,,0.00,0.0,WeatherDisplay:10.37,2013-04-29 07:13:00,
2013-04-29 02:18:00,54.4,51.2,29.90,NNE,14,0.0,0.0,89,0.00,CLR,,0.00,0.0,WeatherDisplay:10.37,2013-04-29 07:18:00,
2013-04-29 02:23:00,54.3,51.4,29.90,NNE,14,0.0,0.0,90,0.00,CLR,,0.00,0.0,WeatherDisplay:10.37,2013-04-29 07:23:00,
2013-04-29 02:28:00,54.2,51.3,29.90,NNE,14,0.0,0.0,90,0.00,CLR,,0.00,0.0,WeatherDisplay:10.37,2013-04-29 07:28:00,
2013-04-29 02:33:00,54.2,51.3,29.90,NNE,14,0.0,0.0,90,0.00,CLR,,0.00,0.0,WeatherDisplay:10.37,2013-04-29 07:33:00,
2013-04-29 02:38:00,54.0,51.1,29.90,NNE,14,0.0,0.0,90,0.00,CLR,,0.00,0.0,WeatherDisplay:10.37,2013-04-29 07:38:00,
2013-04-29 02:43:00,53.9,51.0,29.90,NNE,14,0.0,0.0,90,0.00,CLR,,0.00,0.0,WeatherDisplay:10.37,2013-04-29 07:43:00,
2013-04-29 02:48:00,53.7,50.8,29.90,NNE,14,0.0,0.0,90,0.00,CLR,,0.00,0.0,WeatherDisplay:10.37,2013-04-29 07:48:00,
2013-04-29 02:53:00,53.6,51.0,29.91,NNE,14,0.0,0.0,91,0.00,CLR,,0.00,0.0,WeatherDisplay:10.37,2013-04-29 07:53:00,
2013-04-29 02:58:00,53.5,50.9,29.90,NNE,14,0.0,0.0,91,0.00,CLR,,0.00,0.0,WeatherDisplay:10.37,2013-04-29 07:58:00,
2013-04-29 03:03:00,53.3,50.7,29.90,NNE,14,0.0,0.0,91,0.00,CLR,,0.00,0.0,WeatherDisplay:10.37,2013-04-29 08:03:00,
2013-04-29 03:08:00,53.3,50.7,29.90,NNE,14,0.0,0.0,91,0.00,CLR,,0.00,0.0,WeatherDisplay:10.37,2013-04-29 08:08:00,
2013-04-29 03:13:00,53.2,50.6,29.90,NNE,14,0.0,0.0,91,0.00,CLR,,0.00,0.0,WeatherDisplay:10.37,2013-04-29 08:13:00,
2013-04-29 03:18:00,53.0,50.7,29.90,NNE,14,0.0,0.0,92,0.00,CLR,,0.00,0.0,WeatherDisplay:10.37,2013-04-29 08:18:00,
2013-04-29 03:23:00,52.9,50.6,29.90,NNE,14,0.0,0.0,92,0.00,CLR,,0.00,0.0,WeatherDisplay:10.37,2013-04-29 08:23:00,
2013-04-29 03:28:00,52.9,50.6,29.90,NNE,14,0.0,0.0,92,0.00,CLR,,0.00,0.0,WeatherDisplay:10.37,2013-04-29 08:28:00,
2013-04-29 03:33:00,52.7,50.4,29.90,NNE,14,0.0,0.0,92,0.00,CLR,,0.00,0.0,WeatherDisplay:10.37,2013-04-29 08:33:00,
2013-04-29 03:38:00,52.5,50.2,29.90,NNE,14,0.0,0.0,92,0.00,CLR,,0.00,0.0,WeatherDisplay:10.37,2013-04-29 08:38:00,
2013-04-29 03:43:00,52.3,50.0,29.90,NNE,14,0.0,0.0,92,0.00,CLR,,0.00,0.0,WeatherDisplay:10.37,2013-04-29 08:43:00,
2013-04-29 03:48:00,52.2,49.9,29.90,NNE,14,0.0,0.0,92,0.01,RA,,0.01,0.0,WeatherDisplay:10.37,2013-04-29 08:48:00,
2013-04-29 03:53:00,52.2,49.9,29.90,NNE,14,0.0,0.0,92,0.01,RA,,0.01,0.0,WeatherDisplay:10.37,2013-04-29 08:53:00,
2013-04-29 03:58:00,52.1,49.8,29.90,NNE,14,0.0,0.0,92,0.01,CLR,,0.01,0.0,WeatherDisplay:10.37,2013-04-29 08:58:00,
2013-04-29 04:03:00,51.9,49.6,29.90,NNE,14,0.0,0.0,92,0.01,CLR,,0.01,0.0,WeatherDisplay:10.37,2013-04-29 09:03:00,
2013-04-29 04:08:00,51.7,49.5,29.90,NNE,14,0.0,0.0,92,0.01,CLR,,0.01,0.0,WeatherDisplay:10.37,2013-04-29 09:08:00,
2013-04-29 04:13:00,51.6,49.4,29.90,NNE,14,0.0,0.0,92,0.01,CLR,,0.01,0.0,WeatherDisplay:10.37,2013-04-29 09:13:00,
2013-04-29 04:18:00,51.3,49.1,29.90,NNE,14,0.0,0.0,92,0.01,CLR,,0.01,0.0,WeatherDisplay:10.37,2013-04-29 09:18:00,
2013-04-29 04:23:00,51.0,48.8,29.90,NNE,14,0.0,0.0,92,0.01,CLR,,0.01,0.0,WeatherDisplay:10.37,2013-04-29 09:23:00,
2013-04-29 04:28:00,51.0,49.0,29.91,NNE,14,0.0,0.0,93,0.01,CLR,,0.01,0.0,WeatherDisplay:10.37,2013-04-29 09:28:00,
2013-04-29 04:33:00,50.8,48.8,29.91,NNE,14,0.0,0.0,93,0.01,CLR,,0.01,0.0,WeatherDisplay:10.37,2013-04-29 09:33:00,
2013-04-29 04:38:00,50.5,48.3,29.91,NNE,14,0.0,0.0,92,0.01,CLR,,0.01,0.0,WeatherDisplay:10.37,2013-04-29 09:38:00,
2013-04-29 04:43:00,50.4,48.5,29.91,NNE,14,0.0,0.0,93,0.01,CLR,,0.01,0.0,WeatherDisplay:10.37,2013-04-29 09:43:00,
2013-04-29 04:48:00,50.4,48.5,29.91,NNE,14,0.0,0.0,93,0.00,CLR,,0.01,0.0,WeatherDisplay:10.37,2013-04-29 09:48:00,
2013-04-29 04:53:00,50.3,48.4,29.91,NNE,14,0.0,0.0,93,0.00,CLR,,0.01,0.0,WeatherDisplay:10.37,2013-04-29 09:53:00,
2013-04-29 04:58:00,50.2,48.3,29.92,NNE,14,0.0,0.0,93,0.00,CLR,,0.01,0.0,WeatherDisplay:10.37,2013-04-29 09:58:00,
2013-04-29 05:03:00,50.1,48.2,29.92,NNE,14,0.0,0.0,93,0.00,CLR,,0.01,0.0,WeatherDisplay:10.37,2013-04-29 10:03:00,
2013-04-29 05:08:00,50.2,48.3,29.92,NNE,14,0.0,0.0,93,0.00,CLR,,0.01,0.0,WeatherDisplay:10.37,2013-04-29 10:08:00,
2013-04-29 05:13:00,50.1,48.2,29.92,NNE,14,0.0,0.0,93,0.00,CLR,,0.01,0.0,WeatherDisplay:10.37,2013-04-29 10:13:00,
2013-04-29 05:18:00,50.2,48.3,29.92,NNE,14,0.0,0.0,93,0.00,CLR,,0.01,0.0,WeatherDisplay:10.37,2013-04-29 10:18:00,
2013-04-29 05:23:00,49.8,47.9,29.92,NNE,14,0.0,0.0,93,0.00,CLR,,0.01,0.0,WeatherDisplay:10.37,2013-04-29 10:23:00,
2013-04-29 05:28:00,49.7,47.8,29.91,NNE,14,0.0,0.0,93,0.00,CLR,,0.01,0.0,WeatherDisplay:10.37,2013-04-29 10:28:00,
2013-04-29 05:33:00,49.6,47.7,29.92,NNE,14,0.0,0.0,93,0.00,CLR,,0.01,0.0,WeatherDisplay:10.37,2013-04-29 10:33:00,
2013-04-29 05:38:00,49.6,47.7,29.92,NNE,14,0.0,0.0,93,0.00,CLR,,0.01,0.0,WeatherDisplay:10.37,2013-04-29 10:38:00,
2013-04-29 05:43:00,49.5,47.6,29.92,NNE,14,0.0,0.0,93,0.00,CLR,,0.01,0.0,WeatherDisplay:10.37,2013-04-29 10:43:00,
2013-04-29 05:48:00,49.5,47.6,29.92,NNE,14,0.0,0.0,93,0.00,CLR,,0.01,0.0,WeatherDisplay:10.37,2013-04-29 10:48:00,
2013-04-29 05:53:00,49.6,47.7,29.92,NNE,14,0.0,0.0,93,0.00,CLR,,0.01,0.0,WeatherDisplay:10.37,2013-04-29 10:53:00,
2013-04-29 05:58:00,49.4,47.5,29.92,NNE,14,0.0,0.0,93,0.00,CLR,,0.01,0.0,WeatherDisplay:10.37,2013-04-29 10:58:00,
2013-04-29 06:03:00,49.3,47.4,29.92,NNE,14,0.0,0.0,93,0.00,CLR,,0.01,0.0,WeatherDisplay:10.37,2013-04-29 11:03:00,
2013-04-29 06:08:00,49.2,47.3,29.92,NNE,14,0.0,0.0,93,0.00,CLR,,0.01,0.0,WeatherDisplay:10.37,2013-04-29 11:08:00,
2013-04-29 06:13:00,49.2,47.3,29.93,NNE,14,0.0,0.0,93,0.00,CLR,,0.01,0.0,WeatherDisplay:10.37,2013-04-29 11:13:00,
2013-04-29 06:18:00,49.3,47.4,29.93,NNE,14,0.0,0.0,93,0.00,CLR,,0.01,0.0,WeatherDisplay:10.37,2013-04-29 11:18:00,
2013-04-29 06:23:00,49.2,47.3,29.93,NNE,14,0.0,0.0,93,0.00,CLR,,0.01,0.0,WeatherDisplay:10.37,2013-04-29 11:23:00,
2013-04-29 06:28:00,49.2,47.3,29.93,NNE,14,0.0,0.0,93,0.00,CLR,,0.01,5.0,WeatherDisplay:10.37,2013-04-29 11:28:00,
2013-04-29 06:33:00,49.1,47.2,29.93,NNE,14,0.0,0.0,93,0.00,CLR,,0.01,9.0,WeatherDisplay:10.37,2013-04-29 11:33:00,
2013-04-29 06:38:00,49.1,47.2,29.94,NNE,14,0.0,0.0,93,0.00,CLR,,0.01,12.0,WeatherDisplay:10.37,2013-04-29 11:38:00,
2013-04-29 06:43:00,49.1,47.2,29.94,NNE,14,0.0,0.0,93,0.00,CLR,,0.01,16.0,WeatherDisplay:10.37,2013-04-29 11:43:00,
2013-04-29 06:48:00,49.1,47.2,29.94,NNE,14,0.0,0.0,93,0.00,CLR,,0.01,18.0,WeatherDisplay:10.37,2013-04-29 11:48:00,
2013-04-29 06:53:00,49.2,47.5,29.95,NNE,14,0.0,0.0,94,0.00,CLR,,0.01,21.0,WeatherDisplay:10.37,2013-04-29 11:53:00,
2013-04-29 06:58:00,49.4,47.5,29.95,NNE,14,0.0,1.1,93,0.00,CLR,,0.01,25.0,WeatherDisplay:10.37,2013-04-29 11:58:00,
2013-04-29 07:03:00,49.9,48.2,29.95,NE,37,0.7,2.3,94,0.00,CLR,,0.01,28.0,WeatherDisplay:10.37,2013-04-29 12:03:00,
2013-04-29 07:08:00,50.5,48.8,29.95,NNE,33,0.8,2.3,94,0.00,CLR,,0.01,32.0,WeatherDisplay:10.37,2013-04-29 12:08:00,
2013-04-29 07:13:00,50.9,49.2,29.95,NNE,21,0.0,0.0,94,0.00,CLR,,0.01,35.0,WeatherDisplay:10.37,2013-04-29 12:13:00,
2013-04-29 07:18:00,51.5,49.8,29.95,NNE,21,0.0,0.0,94,0.00,CLR,,0.01,37.0,WeatherDisplay:10.37,2013-04-29 12:18:00,
2013-04-29 07:23:00,51.9,50.2,29.95,NNW,344,0.0,3.5,94,0.00,CLR,,0.01,40.0,WeatherDisplay:10.37,2013-04-29 12:23:00,
2013-04-29 07:28:00,52.4,50.7,29.95,NNW,344,0.0,0.0,94,0.00,CLR,,0.01,44.0,WeatherDisplay:10.37,2013-04-29 12:28:00,
2013-04-29 07:33:00,53.0,51.3,29.95,NNW,344,0.4,1.1,94,0.00,CLR,,0.01,49.0,WeatherDisplay:10.37,2013-04-29 12:33:00,
2013-04-29 07:38:00,53.5,51.8,29.96,NE,55,0.4,1.1,94,0.00,CLR,,0.01,56.0,WeatherDisplay:10.37,2013-04-29 12:38:00,
2013-04-29 07:43:00,54.1,52.4,29.96,NE,55,0.0,0.0,94,0.00,CLR,,0.01,56.0,WeatherDisplay:10.37,2013-04-29 12:43:00,
2013-04-29 07:48:00,54.8,52.8,29.95,North,5,0.7,2.6,93,0.00,CLR,,0.01,65.0,WeatherDisplay:10.37,2013-04-29 12:48:00,
2013-04-29 07:53:00,55.4,53.1,29.96,North,5,0.1,1.1,92,0.00,CLR,,0.01,120.0,WeatherDisplay:10.37,2013-04-29 12:53:00,
2013-04-29 07:58:00,56.1,53.5,29.96,East,93,0.3,1.1,91,0.00,CLR,,0.01,221.0,WeatherDisplay:10.37,2013-04-29 12:58:00,
2013-04-29 08:03:00,56.9,53.7,29.96,East,92,1.2,2.3,89,0.00,CLR,,0.01,237.0,WeatherDisplay:10.37,2013-04-29 13:03:00,
2013-04-29 08:08:00,57.7,53.9,29.96,East,81,0.1,1.1,87,0.00,CLR,,0.01,253.0,WeatherDisplay:10.37,2013-04-29 13:08:00,
2013-04-29 08:13:00,58.2,54.0,29.96,East,98,2.9,3.5,86,0.00,CLR,,0.01,272.0,WeatherDisplay:10.37,2013-04-29 13:13:00,
2013-04-29 08:18:00,58.8,54.0,29.96,ESE,107,1.1,4.0,84,0.00,CLR,,0.01,290.0,WeatherDisplay:10.37,2013-04-29 13:18:00,
2013-04-29 08:23:00,59.3,54.5,29.96,East,80,2.8,4.0,84,0.00,CLR,,0.01,309.0,WeatherDisplay:10.37,2013-04-29 13:23:00,
2013-04-29 08:28:00,59.6,54.4,29.95,East,100,2.3,3.5,83,0.00,CLR,,0.01,327.0,WeatherDisplay:10.37,2013-04-29 13:28:00,
2013-04-29 08:33:00,60.2,55.0,29.96,ENE,77,1.4,2.6,83,0.00,CLR,,0.01,345.0,WeatherDisplay:10.37,2013-04-29 13:33:00,
2013-04-29 08:38:00,60.4,54.5,29.95,SE,144,4.3,8.1,81,0.00,CLR,,0.01,359.0,WeatherDisplay:10.37,2013-04-29 13:38:00,
2013-04-29 08:43:00,60.6,54.7,29.95,East,101,4.3,5.8,81,0.00,CLR,,0.01,385.0,WeatherDisplay:10.37,2013-04-29 13:43:00,
2013-04-29 08:48:00,61.1,55.2,29.95,ESE,117,2.4,6.9,81,0.00,CLR,,0.01,410.0,WeatherDisplay:10.37,2013-04-29 13:48:00,
2013-04-29 08:53:00,61.5,55.3,29.95,SE,135,3.2,5.8,80,0.00,CLR,,0.01,431.0,WeatherDisplay:10.37,2013-04-29 13:53:00,
2013-04-29 08:58:00,61.7,54.8,29.95,ESE,106,5.9,8.1,78,0.00,CLR,,0.01,446.0,WeatherDisplay:10.37,2013-04-29 13:58:00,
2013-04-29 09:03:00,62.2,56.0,29.95,NNE,28,0.8,3.5,80,0.00,CLR,,0.01,466.0,WeatherDisplay:10.37,2013-04-29 14:03:00,
2013-04-29 09:08:00,62.9,54.9,29.95,East,99,5.0,9.2,75,0.00,CLR,,0.01,483.0,WeatherDisplay:10.37,2013-04-29 14:08:00,
2013-04-29 09:13:00,62.9,55.2,29.95,ESE,106,3.9,5.8,76,0.00,CLR,,0.01,499.0,WeatherDisplay:10.37,2013-04-29 14:13:00,
2013-04-29 09:18:00,63.1,55.4,29.95,East,101,4.3,8.1,76,0.00,CLR,,0.01,517.0,WeatherDisplay:10.37,2013-04-29 14:18:00,
2013-04-29 09:23:00,63.6,55.5,29.95,North,5,3.5,6.9,75,0.00,CLR,,0.01,534.0,WeatherDisplay:10.37,2013-04-29 14:23:00,
2013-04-29 09:28:00,63.9,56.2,29.95,ENE,76,3.4,3.5,76,0.00,CLR,,0.01,550.0,WeatherDisplay:10.37,2013-04-29 14:28:00,
2013-04-29 09:33:00,64.0,56.3,29.95,SSE,159,2.7,2.7,76,0.00,CLR,,0.01,564.0,WeatherDisplay:10.37,2013-04-29 14:33:00,
2013-04-29 09:38:00,64.3,55.8,29.95,ESE,123,2.9,4.0,74,0.00,CLR,,0.01,582.0,WeatherDisplay:10.37,2013-04-29 14:38:00,
2013-04-29 09:43:00,65.1,57.7,29.95,SSE,154,4.0,5.8,77,0.00,CLR,,0.01,601.0,WeatherDisplay:10.37,2013-04-29 14:43:00,
2013-04-29 09:48:00,65.6,56.7,29.94,East,79,4.1,6.6,73,0.00,CLR,,0.01,615.0,WeatherDisplay:10.37,2013-04-29 14:48:00,
2013-04-29 09:53:00,65.4,56.1,29.94,ESE,111,2.3,2.3,72,0.00,CLR,,0.01,629.0,WeatherDisplay:10.37,2013-04-29 14:53:00,
2013-04-29 09:58:00,66.0,57.1,29.95,SE,132,3.8,6.9,73,0.00,CLR,,0.01,645.0,WeatherDisplay:10.37,2013-04-29 14:58:00,
2013-04-29 10:03:00,67.0,58.1,29.95,ESE,105,2.2,3.5,73,0.00,CLR,,0.01,661.0,WeatherDisplay:10.37,2013-04-29 15:03:00,
2013-04-29 10:08:00,67.4,56.9,29.95,SE,135,2.1,2.6,69,0.00,CLR,,0.01,675.0,WeatherDisplay:10.37,2013-04-29 15:08:00,
2013-04-29 10:13:00,67.7,57.2,29.95,ESE,109,2.3,2.3,69,0.00,CLR,,0.01,693.0,WeatherDisplay:10.37,2013-04-29 15:13:00,
2013-04-29 10:18:00,68.1,56.3,29.95,East,94,3.7,4.0,66,0.00,CLR,,0.01,705.0,WeatherDisplay:10.37,2013-04-29 15:18:00,
2013-04-29 10:23:00,68.4,57.4,29.95,SSE,153,4.4,5.8,68,0.00,CLR,,0.01,717.0,WeatherDisplay:10.37,2013-04-29 15:23:00,
2013-04-29 10:28:00,68.6,57.2,29.95,East,80,3.5,4.0,67,0.00,CLR,,0.01,726.0,WeatherDisplay:10.37,2013-04-29 15:28:00,
2013-04-29 10:33:00,69.2,60.2,29.95,East,86,3.7,4.0,73,0.00,CLR,,0.01,744.0,WeatherDisplay:10.37,2013-04-29 15:33:00,
2013-04-29 10:38:00,69.2,56.9,29.95,ESE,109,4.9,6.9,65,0.00,CLR,,0.01,758.0,WeatherDisplay:10.37,2013-04-29 15:38:00,
2013-04-29 10:43:00,69.3,57.5,29.95,ESE,107,1.6,3.5,66,0.00,CLR,,0.01,768.0,WeatherDisplay:10.37,2013-04-29 15:43:00,
2013-04-29 10:48:00,70.6,57.8,29.95,East,90,4.1,6.6,64,0.00,CLR,,0.01,780.0,WeatherDisplay:10.37,2013-04-29 15:48:00,
2013-04-29 10:53:00,70.3,58.0,29.94,SSW,212,3.9,5.3,65,0.00,CLR,,0.01,791.0,WeatherDisplay:10.37,2013-04-29 15:53:00,
2013-04-29 10:58:00,70.4,56.8,29.94,ESE,111,3.3,4.0,62,0.00,CLR,,0.01,803.0,WeatherDisplay:10.37,2013-04-29 15:58:00,
2013-04-29 11:03:00,70.6,58.3,29.94,ESE,119,3.8,8.1,65,0.00,CLR,,0.01,814.0,WeatherDisplay:10.37,2013-04-29 16:03:00,
2013-04-29 11:08:00,71.2,57.5,29.94,SE,136,5.2,5.8,62,0.00,CLR,,0.01,826.0,WeatherDisplay:10.37,2013-04-29 16:08:00,
2013-04-29 11:13:00,71.6,57.9,29.94,ESE,105,6.3,6.9,62,0.00,CLR,,0.01,838.0,WeatherDisplay:10.37,2013-04-29 16:13:00,
2013-04-29 11:18:00,72.0,58.7,29.94,SSE,161,3.2,3.5,63,0.00,CLR,,0.01,849.0,WeatherDisplay:10.37,2013-04-29 16:18:00,
2013-04-29 11:23:00,72.6,58.4,29.94,East,86,2.7,6.9,61,0.00,CLR,,0.01,861.0,WeatherDisplay:10.37,2013-04-29 16:23:00,
2013-04-29 11:28:00,72.6,58.8,29.94,SE,130,3.6,3.6,62,0.00,CLR,,0.01,872.0,WeatherDisplay:10.37,2013-04-29 16:28:00,
2013-04-29 11:33:00,73.3,59.5,29.93,ESE,110,5.8,6.9,62,0.00,CLR,,0.01,881.0,WeatherDisplay:10.37,2013-04-29 16:33:00,
2013-04-29 11:38:00,72.9,58.7,29.93,SE,146,7.0,9.2,61,0.00,CLR,,0.01,891.0,WeatherDisplay:10.37,2013-04-29 16:38:00,
2013-04-29 11:43:00,73.7,58.5,29.93,East,93,6.0,6.9,59,0.00,CLR,,0.01,896.0,WeatherDisplay:10.37,2013-04-29 16:43:00,
2013-04-29 11:48:00,74.3,60.0,29.93,SE,146,4.1,4.1,61,0.00,CLR,,0.01,904.0,WeatherDisplay:10.37,2013-04-29 16:48:00,
2013-04-29 11:53:00,74.4,60.5,29.93,South,175,4.3,6.9,62,0.00,CLR,,0.01,911.0,WeatherDisplay:10.37,2013-04-29 16:53:00,
2013-04-29 11:58:00,74.9,59.1,29.92,ESE,112,4.6,5.8,58,0.00,CLR,,0.01,916.0,WeatherDisplay:10.37,2013-04-29 16:58:00,
2013-04-29 12:03:00,74.7,58.9,29.92,ESE,119,5.1,6.9,58,0.00,CLR,,0.01,926.0,WeatherDisplay:10.37,2013-04-29 17:03:00,
2013-04-29 12:08:00,74.5,59.2,29.92,SW,214,4.4,4.4,59,0.00,CLR,,0.01,928.0,WeatherDisplay:10.37,2013-04-29 17:08:00,
2013-04-29 12:13:00,75.0,60.2,29.92,ESE,118,2.5,5.8,60,0.00,CLR,,0.01,935.0,WeatherDisplay:10.37,2013-04-29 17:13:00,
2013-04-29 12:18:00,75.9,59.6,29.91,East,84,4.1,6.6,57,0.00,CLR,,0.01,940.0,WeatherDisplay:10.37,2013-04-29 17:18:00,
2013-04-29 12:23:00,75.7,60.4,29.91,SE,142,2.1,8.1,59,0.00,CLR,,0.01,946.0,WeatherDisplay:10.37,2013-04-29 17:23:00,
2013-04-29 12:28:00,75.9,61.5,29.91,NE,36,3.6,3.6,61,0.00,CLR,,0.01,951.0,WeatherDisplay:10.37,2013-04-29 17:28:00,
2013-04-29 12:33:00,76.3,59.9,29.91,ESE,109,5.6,8.1,57,0.00,CLR,,0.01,960.0,WeatherDisplay:10.37,2013-04-29 17:33:00,
2013-04-29 12:38:00,75.9,59.1,29.91,SE,130,0.9,6.9,56,0.00,CLR,,0.01,962.0,WeatherDisplay:10.37,2013-04-29 17:38:00,
2013-04-29 12:43:00,75.9,59.1,29.91,ESE,105,1.0,6.9,56,0.00,CLR,,0.01,967.0,WeatherDisplay:10.37,2013-04-29 17:43:00,
2013-04-29 12:48:00,76.2,60.8,29.91,ESE,118,2.7,5.3,59,0.00,CLR,,0.01,969.0,WeatherDisplay:10.37,2013-04-29 17:48:00,
2013-04-29 12:53:00,76.5,59.6,29.90,WNW,290,2.7,5.8,56,0.00,CLR,,0.01,965.0,WeatherDisplay:10.37,2013-04-29 17:53:00,
2013-04-29 12:58:00,76.4,59.0,29.90,SSE,148,5.5,6.9,55,0.00,CLR,,0.01,965.0,WeatherDisplay:10.37,2013-04-29 17:58:00,
2013-04-29 13:03:00,76.9,60.0,29.90,ESE,109,5.6,5.6,56,0.00,CLR,,0.01,967.0,WeatherDisplay:10.37,2013-04-29 18:03:00,
2013-04-29 13:08:00,76.9,59.5,29.90,SE,126,0.0,3.5,55,0.00,CLR,,0.01,972.0,WeatherDisplay:10.37,2013-04-29 18:08:00,
2013-04-29 13:13:00,77.4,61.0,29.89,East,80,3.1,4.0,57,0.00,CLR,,0.01,977.0,WeatherDisplay:10.37,2013-04-29 18:13:00,
2013-04-29 13:18:00,77.9,60.4,29.89,SSW,211,1.9,3.5,55,0.00,CLR,,0.01,979.0,WeatherDisplay:10.37,2013-04-29 18:18:00,
2013-04-29 13:23:00,77.6,59.6,29.89,ESE,121,5.0,5.8,54,0.00,CLR,,0.01,979.0,WeatherDisplay:10.37,2013-04-29 18:23:00,
2013-04-29 13:28:00,77.4,60.5,29.89,WNW,288,3.5,4.0,56,0.00,CLR,,0.01,977.0,WeatherDisplay:10.37,2013-04-29 18:28:00,
2013-04-29 13:33:00,78.0,61.0,29.88,NW,315,0.0,1.1,56,0.00,CLR,,0.01,977.0,WeatherDisplay:10.37,2013-04-29 18:33:00,
2013-04-29 13:38:00,78.7,61.2,29.88,WNW,285,3.5,4.0,55,0.00,CLR,,0.01,1014.0,WeatherDisplay:10.37,2013-04-29 18:38:00,
2013-04-29 13:43:00,78.8,61.8,29.88,WSW,252,3.4,5.8,56,0.00,CLR,,0.01,974.0,WeatherDisplay:10.37,2013-04-29 18:43:00,
2013-04-29 13:48:00,78.8,61.8,29.88,WNW,286,0.0,2.3,56,0.00,CLR,,0.01,972.0,WeatherDisplay:10.37,2013-04-29 18:48:00,
2013-04-29 13:53:00,79.8,61.7,29.87,SW,232,0.4,1.3,54,0.00,CLR,,0.01,969.0,WeatherDisplay:10.37,2013-04-29 18:53:00,
2013-04-29 13:58:00,80.1,61.4,29.87,East,94,6.0,7.9,53,0.00,CLR,,0.01,963.0,WeatherDisplay:10.37,2013-04-29 18:58:00,
2013-04-29 14:03:00,79.7,59.4,29.87,SSE,156,5.4,8.1,50,0.00,CLR,,0.01,956.0,WeatherDisplay:10.37,2013-04-29 19:03:00,
2013-04-29 14:08:00,79.7,60.5,29.87,East,82,5.1,7.9,52,0.01,RA,,0.02,954.0,WeatherDisplay:10.37,2013-04-29 19:08:00,
2013-04-29 14:13:00,80.3,63.7,29.87,SE,129,3.0,6.9,57,0.01,RA,,0.02,947.0,WeatherDisplay:10.37,2013-04-29 19:13:00,
2013-04-29 14:18:00,79.8,60.6,29.86,SE,136,5.4,5.4,52,0.01,CLR,,0.02,939.0,WeatherDisplay:10.37,2013-04-29 19:18:00,
2013-04-29 14:23:00,80.7,60.3,29.86,SE,127,1.7,2.3,50,0.01,CLR,,0.02,937.0,WeatherDisplay:10.37,2013-04-29 19:23:00,
2013-04-29 14:28:00,80.6,60.8,29.86,East,92,5.6,6.6,51,0.01,CLR,,0.02,928.0,WeatherDisplay:10.37,2013-04-29 19:28:00,
2013-04-29 14:33:00,81.0,61.7,29.86,South,181,3.7,6.9,52,0.01,CLR,,0.02,919.0,WeatherDisplay:10.37,2013-04-29 19:33:00,
2013-04-29 14:39:00,80.5,60.1,29.86,SE,145,3.1,6.9,50,0.01,CLR,,0.02,907.0,WeatherDisplay:10.37,2013-04-29 19:39:00,
2013-04-29 14:44:00,80.3,61.6,29.85,East,99,1.0,2.3,53,0.01,CLR,,0.02,898.0,WeatherDisplay:10.37,2013-04-29 19:44:00,
2013-04-29 14:49:00,81.0,61.7,29.85,East,101,6.5,9.2,52,0.01,CLR,,0.02,891.0,WeatherDisplay:10.37,2013-04-29 19:49:00,
2013-04-29 14:54:00,81.2,64.5,29.85,ESE,121,0.2,1.1,57,0.01,CLR,,0.02,884.0,WeatherDisplay:10.37,2013-04-29 19:54:00,
2013-04-29 14:59:00,81.3,62.5,29.84,SE,145,2.7,5.8,53,0.01,CLR,,0.02,874.0,WeatherDisplay:10.37,2013-04-29 19:59:00,
2013-04-29 15:04:00,81.3,61.4,29.84,SW,234,3.0,3.5,51,0.01,CLR,,0.02,865.0,WeatherDisplay:10.37,2013-04-29 20:04:00,
2013-04-29 15:09:00,81.8,61.9,29.84,SE,132,2.8,3.5,51,0.00,CLR,,0.02,853.0,WeatherDisplay:10.37,2013-04-29 20:09:00,
2013-04-29 15:14:00,81.6,61.2,29.84,East,100,1.9,2.3,50,0.00,CLR,,0.02,838.0,WeatherDisplay:10.37,2013-04-29 20:14:00,
2013-04-29 15:19:00,82.5,62.0,29.83,SE,138,2.9,5.8,50,0.00,CLR,,0.02,828.0,WeatherDisplay:10.37,2013-04-29 20:19:00,
2013-04-29 15:24:00,82.0,60.4,29.83,ESE,102,4.5,6.9,48,0.00,CLR,,0.02,817.0,WeatherDisplay:10.37,2013-04-29 20:24:00,
2013-04-29 15:29:00,82.2,61.1,29.83,East,101,7.1,10.4,49,0.00,CLR,,0.02,807.0,WeatherDisplay:10.37,2013-04-29 20:29:00,
2013-04-29 15:34:00,82.1,61.0,29.83,ESE,104,4.5,6.9,49,0.00,CLR,,0.02,784.0,WeatherDisplay:10.37,2013-04-29 20:34:00,
2013-04-29 15:39:00,82.8,62.3,29.82,ENE,72,2.9,5.8,50,0.00,CLR,,0.02,773.0,WeatherDisplay:10.37,2013-04-29 20:39:00,
2013-04-29 15:44:00,82.8,62.3,29.82,ESE,111,1.0,2.3,50,0.00,CLR,,0.02,759.0,WeatherDisplay:10.37,2013-04-29 20:44:00,
2013-04-29 15:49:00,83.0,60.7,29.82,ESE,115,3.1,3.5,47,0.00,CLR,,0.02,749.0,WeatherDisplay:10.37,2013-04-29 20:49:00,
2013-04-29 15:54:00,82.8,59.3,29.81,ESE,115,4.7,6.9,45,0.00,CLR,,0.02,742.0,WeatherDisplay:10.37,2013-04-29 20:54:00,
2013-04-29 15:59:00,83.0,61.3,29.81,South,175,3.3,6.6,48,0.00,CLR,,0.02,728.0,WeatherDisplay:10.37,2013-04-29 20:59:00,
2013-04-29 16:04:00,83.6,61.2,29.81,East,99,3.0,3.5,47,0.00,CLR,,0.02,714.0,WeatherDisplay:10.37,2013-04-29 21:04:00,
2013-04-29 16:09:00,83.6,62.4,29.81,East,94,4.4,5.8,49,0.00,CLR,,0.02,703.0,WeatherDisplay:10.37,2013-04-29 21:09:00,
2013-04-29 16:14:00,83.4,61.7,29.81,East,92,4.2,6.9,48,0.00,CLR,,0.02,691.0,WeatherDisplay:10.37,2013-04-29 21:14:00,
2013-04-29 16:19:00,83.5,61.7,29.81,ENE,74,5.8,8.1,48,0.00,CLR,,0.02,675.0,WeatherDisplay:10.37,2013-04-29 21:19:00,
2013-04-29 16:24:00,84.7,60.4,29.81,NE,38,1.7,2.3,44,0.00,CLR,,0.02,654.0,WeatherDisplay:10.37,2013-04-29 21:24:00,
2013-04-29 16:29:00,84.0,62.2,29.81,ESE,117,3.9,6.9,48,0.00,CLR,,0.02,636.0,WeatherDisplay:10.37,2013-04-29 21:29:00,
2013-04-29 16:34:00,83.7,59.5,29.81,East,99,4.1,8.1,44,0.00,CLR,,0.02,613.0,WeatherDisplay:10.37,2013-04-29 21:34:00,
2013-04-29 16:39:00,83.6,60.0,29.80,ESE,121,3.7,5.8,45,0.00,CLR,,0.02,603.0,WeatherDisplay:10.37,2013-04-29 21:39:00,
2013-04-29 16:44:00,84.2,59.9,29.80,East,96,2.2,4.0,44,0.00,CLR,,0.02,589.0,WeatherDisplay:10.37,2013-04-29 21:44:00,
2013-04-29 16:49:00,84.0,62.2,29.80,ESE,114,2.2,3.5,48,0.00,CLR,,0.02,587.0,WeatherDisplay:10.37,2013-04-29 21:49:00,
2013-04-29 16:54:00,84.1,59.8,29.80,SE,126,4.1,6.9,44,0.00,CLR,,0.02,568.0,WeatherDisplay:10.37,2013-04-29 21:54:00,
2013-04-29 16:59:00,84.2,57.9,29.80,East,101,2.6,3.5,41,0.00,CLR,,0.02,552.0,WeatherDisplay:10.37,2013-04-29 21:59:00,
2013-04-29 17:04:00,84.1,57.9,29.79,East,91,2.9,3.5,41,0.00,CLR,,0.02,534.0,WeatherDisplay:10.37,2013-04-29 22:04:00,
2013-04-29 17:09:00,84.3,58.7,29.79,SSE,150,1.1,2.3,42,0.00,CLR,,0.02,526.0,WeatherDisplay:10.37,2013-04-29 22:09:00,
2013-04-29 17:14:00,84.7,59.1,29.79,ESE,115,0.6,2.6,42,0.00,CLR,,0.02,506.0,WeatherDisplay:10.37,2013-04-29 22:14:00,
2013-04-29 17:19:00,84.2,59.9,29.79,ESE,105,6.2,9.2,44,0.00,CLR,,0.02,499.0,WeatherDisplay:10.37,2013-04-29 22:19:00,
2013-04-29 17:24:00,84.0,57.8,29.80,ESE,116,5.9,11.5,41,0.00,CLR,,0.02,471.0,WeatherDisplay:10.37,2013-04-29 22:24:00,
2013-04-29 17:29:00,83.8,58.3,29.80,ESE,120,6.3,10.4,42,0.00,CLR,,0.02,455.0,WeatherDisplay:10.37,2013-04-29 22:29:00,
2013-04-29 17:34:00,83.3,59.7,29.80,ESE,104,10.3,15.0,45,0.00,CLR,,0.02,441.0,WeatherDisplay:10.37,2013-04-29 22:34:00,
2013-04-29 17:39:00,81.5,60.5,29.80,ESE,115,6.6,10.4,49,0.00,CLR,,0.02,450.0,WeatherDisplay:10.37,2013-04-29 22:39:00,
2013-04-29 17:44:00,80.9,59.9,29.80,ENE,71,8.0,11.5,49,0.00,CLR,,0.02,420.0,WeatherDisplay:10.37,2013-04-29 22:44:00,
2013-04-29 17:49:00,79.7,60.5,29.80,ESE,110,3.0,5.8,52,0.00,CLR,,0.02,383.0,WeatherDisplay:10.37,2013-04-29 22:49:00,
2013-04-29 17:54:00,79.6,59.9,29.80,ESE,112,4.4,5.8,51,0.00,CLR,,0.02,367.0,WeatherDisplay:10.37,2013-04-29 22:54:00,
2013-04-29 17:59:00,79.8,58.4,29.79,SE,128,5.6,6.9,48,0.00,CLR,,0.02,346.0,WeatherDisplay:10.37,2013-04-29 22:59:00,
2013-04-29 18:04:00,79.9,57.9,29.80,SE,142,5.9,9.2,47,0.00,CLR,,0.02,315.0,WeatherDisplay:10.37,2013-04-29 23:04:00,
2013-04-29 18:09:00,80.0,58.5,29.79,East,83,4.3,9.2,48,0.00,CLR,,0.02,308.0,WeatherDisplay:10.37,2013-04-29 23:09:00,
2013-04-29 18:14:00,80.0,58.5,29.79,ESE,117,2.8,6.9,48,0.00,CLR,,0.02,285.0,WeatherDisplay:10.37,2013-04-29 23:14:00,
2013-04-29 18:19:00,79.9,57.3,29.79,SE,130,5.2,8.1,46,0.00,CLR,,0.02,91.0,WeatherDisplay:10.37,2013-04-29 23:19:00,
2013-04-29 18:24:00,79.6,58.2,29.79,ESE,120,1.2,2.3,48,0.00,CLR,,0.02,109.0,WeatherDisplay:10.37,2013-04-29 23:24:00,
2013-04-29 18:29:00,79.0,58.2,29.79,ESE,112,1.4,4.0,49,0.00,CLR,,0.02,202.0,WeatherDisplay:10.37,2013-04-29 23:29:00,
2013-04-29 18:34:00,79.0,58.2,29.79,ESE,111,2.7,3.5,49,0.00,CLR,,0.02,197.0,WeatherDisplay:10.37,2013-04-29 23:34:00,
2013-04-29 18:39:00,79.1,58.9,29.79,East,94,2.4,3.5,50,0.00,CLR,,0.02,88.0,WeatherDisplay:10.37,2013-04-29 23:39:00,
2013-04-29 18:44:00,78.8,58.6,29.79,East,101,2.1,2.6,50,0.00,CLR,,0.02,86.0,WeatherDisplay:10.37,2013-04-29 23:44:00,
2013-04-29 18:49:00,78.3,59.8,29.79,ESE,108,2.0,2.6,53,0.00,CLR,,0.02,69.0,WeatherDisplay:10.37,2013-04-29 23:49:00,
2013-04-29 18:54:00,78.0,58.9,29.79,East,96,3.2,5.8,52,0.00,CLR,,0.02,58.0,WeatherDisplay:10.37,2013-04-29 23:54:00,
2013-04-29 18:59:00,77.5,61.1,29.79,ESE,113,0.2,1.1,57,0.00,CLR,,0.02,44.0,WeatherDisplay:10.37,2013-04-29 23:59:00,
2013-04-29 19:04:00,77.2,59.3,29.79,East,95,0.4,3.5,54,0.00,CLR,,0.02,37.0,WeatherDisplay:10.37,2013-04-30 00:04:00,
2013-04-29 19:09:00,76.7,59.8,29.79,ESE,106,0.6,2.6,56,0.00,CLR,,0.02,37.0,WeatherDisplay:10.37,2013-04-30 00:09:00,
2013-04-29 19:14:00,76.3,60.4,29.79,ESE,121,0.1,1.1,58,0.00,CLR,,0.02,35.0,WeatherDisplay:10.37,2013-04-30 00:14:00,
2013-04-29 19:19:00,75.9,60.5,29.79,ESE,119,0.7,1.3,59,0.00,CLR,,0.02,33.0,WeatherDisplay:10.37,2013-04-30 00:19:00,
2013-04-29 19:24:00,75.7,60.8,29.79,ESE,107,0.4,1.1,60,0.00,CLR,,0.02,33.0,WeatherDisplay:10.37,2013-04-30 00:24:00,
2013-04-29 19:29:00,75.1,61.6,29.79,ESE,107,0.0,0.0,63,0.00,CLR,,0.02,33.0,WeatherDisplay:10.37,2013-04-30 00:29:00,
2013-04-29 19:34:00,74.8,61.8,29.79,ESE,107,0.3,1.1,64,0.00,CLR,,0.02,23.0,WeatherDisplay:10.37,2013-04-30 00:34:00,
2013-04-29 19:39:00,74.3,61.3,29.79,ESE,107,0.0,0.0,64,0.00,CLR,,0.02,14.0,WeatherDisplay:10.37,2013-04-30 00:39:00,
2013-04-29 19:44:00,73.9,62.2,29.79,ESE,107,0.0,2.3,67,0.00,CLR,,0.02,11.0,WeatherDisplay:10.37,2013-04-30 00:44:00,
2013-04-29 19:49:00,73.2,61.6,29.79,ESE,107,0.0,0.0,67,0.00,CLR,,0.02,9.0,WeatherDisplay:10.37,2013-04-30 00:49:00,
2013-04-29 19:54:00,72.9,61.3,29.79,ESE,107,0.0,0.0,67,0.00,CLR,,0.02,5.0,WeatherDisplay:10.37,2013-04-30 00:54:00,
2013-04-29 19:59:00,72.6,62.7,29.79,ESE,107,0.0,0.0,71,0.00,CLR,,0.02,0.0,WeatherDisplay:10.37,2013-04-30 00:59:00,
2013-04-29 20:04:00,72.1,62.2,29.79,ESE,107,0.0,0.0,71,0.00,CLR,,0.02,0.0,WeatherDisplay:10.37,2013-04-30 01:04:00,
2013-04-29 20:09:00,72.1,61.8,29.79,ESE,106,0.0,0.0,70,0.00,CLR,,0.02,0.0,WeatherDisplay:10.37,2013-04-30 01:09:00,
2013-04-29 20:14:00,72.0,62.1,29.80,ESE,106,0.0,0.0,71,0.00,CLR,,0.02,0.0,WeatherDisplay:10.37,2013-04-30 01:14:00,
2013-04-29 20:19:00,71.7,62.2,29.80,ESE,107,0.0,0.0,72,0.00,CLR,,0.02,0.0,WeatherDisplay:10.37,2013-04-30 01:19:00,
2013-04-29 20:24:00,71.2,61.7,29.80,ESE,107,0.0,0.0,72,0.00,CLR,,0.02,0.0,WeatherDisplay:10.37,2013-04-30 01:24:00,
2013-04-29 20:29:00,70.8,61.3,29.80,ESE,107,0.0,0.0,72,0.00,CLR,,0.02,0.0,WeatherDisplay:10.37,2013-04-30 01:29:00,
2013-04-29 20:34:00,70.4,62.1,29.80,ESE,107,0.0,0.0,75,0.00,CLR,,0.02,0.0,WeatherDisplay:10.37,2013-04-30 01:34:00,
2013-04-29 20:39:00,69.9,61.6,29.80,ESE,107,0.0,0.0,75,0.00,CLR,,0.02,0.0,WeatherDisplay:10.37,2013-04-30 01:39:00,
2013-04-29 20:44:00,69.6,61.7,29.80,ESE,106,0.0,0.0,76,0.00,CLR,,0.02,0.0,WeatherDisplay:10.37,2013-04-30 01:44:00,
2013-04-29 20:49:00,69.0,61.9,29.81,ESE,107,0.0,0.0,78,0.00,CLR,,0.02,0.0,WeatherDisplay:10.37,2013-04-30 01:49:00,
2013-04-29 20:54:00,68.7,61.6,29.81,ESE,106,0.0,0.0,78,0.00,CLR,,0.02,0.0,WeatherDisplay:10.37,2013-04-30 01:54:00,
2013-04-29 20:59:00,68.3,61.2,29.81,ESE,107,0.0,0.0,78,0.00,CLR,,0.02,0.0,WeatherDisplay:10.37,2013-04-30 01:59:00,
2013-04-29 21:04:00,67.9,60.8,29.81,ESE,106,0.0,0.0,78,0.00,CLR,,0.02,0.0,WeatherDisplay:10.37,2013-04-30 02:04:00,
2013-04-29 21:09:00,67.7,61.0,29.81,ESE,106,0.0,0.0,79,0.00,CLR,,0.02,0.0,WeatherDisplay:10.37,2013-04-30 02:09:00,
2013-04-29 21:14:00,67.4,61.0,29.82,ESE,106,0.0,0.0,80,0.00,CLR,,0.02,0.0,WeatherDisplay:10.37,2013-04-30 02:14:00,
2013-04-29 21:19:00,67.2,60.8,29.82,ESE,107,0.0,0.0,80,0.00,CLR,,0.02,0.0,WeatherDisplay:10.37,2013-04-30 02:19:00,
2013-04-29 21:24:00,67.1,61.1,29.82,ESE,106,0.0,0.0,81,0.00,CLR,,0.02,0.0,WeatherDisplay:10.37,2013-04-30 02:24:00,
2013-04-29 21:29:00,66.8,61.1,29.82,ESE,106,0.0,0.0,82,0.00,CLR,,0.02,0.0,WeatherDisplay:10.37,2013-04-30 02:29:00,
2013-04-29 21:34:00,66.3,61.0,29.82,ESE,106,0.0,0.0,83,0.00,CLR,,0.02,0.0,WeatherDisplay:10.37,2013-04-30 02:34:00,
2013-04-29 21:39:00,66.2,61.2,29.82,ESE,106,0.0,0.0,84,0.00,CLR,,0.02,0.0,WeatherDisplay:10.37,2013-04-30 02:39:00,
2013-04-29 21:44:00,65.9,61.3,29.83,ESE,106,0.0,0.0,85,0.00,CLR,,0.02,0.0,WeatherDisplay:10.37,2013-04-30 02:44:00,
2013-04-29 21:49:00,66.0,61.0,29.83,ESE,106,0.0,0.0,84,0.00,CLR,,0.02,0.0,WeatherDisplay:10.37,2013-04-30 02:49:00,
2013-04-29 21:54:00,65.8,60.8,29.83,ESE,106,0.8,1.3,84,0.00,CLR,,0.02,0.0,WeatherDisplay:10.37,2013-04-30 02:54:00,
2013-04-29 21:59:00,65.5,60.5,29.83,ESE,106,0.0,0.0,84,0.00,CLR,,0.02,0.0,WeatherDisplay:10.37,2013-04-30 02:59:00,
2013-04-29 22:04:00,65.2,60.2,29.83,ESE,106,0.3,1.1,84,0.00,CLR,,0.02,0.0,WeatherDisplay:10.37,2013-04-30 03:04:00,
2013-04-29 22:09:00,65.0,60.4,29.83,ESE,106,0.1,1.1,85,0.00,CLR,,0.02,0.0,WeatherDisplay:10.37,2013-04-30 03:09:00,
2013-04-29 22:14:00,64.9,59.9,29.83,ESE,106,0.0,0.0,84,0.00,CLR,,0.02,0.0,WeatherDisplay:10.37,2013-04-30 03:14:00,
2013-04-29 22:19:00,64.5,60.2,29.83,ESE,106,0.0,0.0,86,0.00,CLR,,0.02,0.0,WeatherDisplay:10.37,2013-04-30 03:19:00,
2013-04-29 22:24:00,64.2,59.9,29.83,ESE,106,0.0,0.0,86,0.00,CLR,,0.02,0.0,WeatherDisplay:10.37,2013-04-30 03:24:00,
2013-04-29 22:29:00,64.0,60.1,29.84,ESE,106,0.0,0.0,87,0.00,CLR,,0.02,0.0,WeatherDisplay:10.37,2013-04-30 03:29:00,
2013-04-29 22:34:00,64.1,59.8,29.83,ENE,60,0.0,0.0,86,0.00,CLR,,0.02,0.0,WeatherDisplay:10.37,2013-04-30 03:34:00,
2013-04-29 22:39:00,64.0,59.7,29.83,ENE,60,0.0,0.0,86,0.00,CLR,,0.02,0.0,WeatherDisplay:10.37,2013-04-30 03:39:00,
2013-04-29 22:44:00,63.8,59.5,29.83,ENE,60,0.0,0.0,86,0.00,CLR,,0.02,0.0,WeatherDisplay:10.37,2013-04-30 03:44:00,
2013-04-29 22:49:00,63.8,59.5,29.83,ENE,60,0.0,0.0,86,0.00,CLR,,0.02,0.0,WeatherDisplay:10.37,2013-04-30 03:49:00,
2013-04-29 22:54:00,63.6,59.3,29.83,ENE,60,0.0,0.0,86,0.00,CLR,,0.02,0.0,WeatherDisplay:10.37,2013-04-30 03:54:00,
2013-04-29 22:59:00,63.6,59.7,29.83,ENE,60,0.0,0.0,87,0.00,CLR,,0.02,0.0,WeatherDisplay:10.37,2013-04-30 03:59:00,
2013-04-29 23:01:00,63.6,59.7,29.83,ENE,60,0.0,0.0,87,0.00,CLR,,0.02,0.0,WeatherDisplay:10.37,2013-04-30 04:01:00,
2013-04-29 23:02:00,63.6,59.7,29.83,ENE,60,0.0,0.0,87,0.00,CLR,,0.02,0.0,WeatherDisplay:10.37,2013-04-30 04:02:00,
2013-04-29 23:07:00,63.5,59.2,29.83,ENE,60,0.0,0.0,86,0.00,CLR,,0.02,0.0,WeatherDisplay:10.37,2013-04-30 04:07:00,
2013-04-29 23:12:00,63.4,59.5,29.83,ENE,60,0.0,0.0,87,0.00,CLR,,0.02,0.0,WeatherDisplay:10.37,2013-04-30 04:12:00,
2013-04-29 23:17:00,63.1,59.2,29.83,ENE,60,0.0,0.0,87,0.00,CLR,,0.02,0.0,WeatherDisplay:10.37,2013-04-30 04:17:00,
2013-04-29 23:22:00,63.0,59.1,29.83,ENE,60,0.0,3.0,87,0.00,CLR,,0.02,0.0,WeatherDisplay:10.37,2013-04-30 04:22:00,
2013-04-29 23:27:00,63.0,59.1,29.83,ENE,59,0.1,2.3,87,0.00,CLR,,0.02,0.0,WeatherDisplay:10.37,2013-04-30 04:27:00,
2013-04-29 23:32:00,63.0,59.1,29.84,ENE,59,0.0,0.0,87,0.00,CLR,,0.02,0.0,WeatherDisplay:10.37,2013-04-30 04:32:00,
2013-04-29 23:37:00,63.1,58.8,29.84,ENE,59,0.0,0.0,86,0.00,CLR,,0.02,0.0,WeatherDisplay:10.37,2013-04-30 04:37:00,
2013-04-29 23:42:00,62.9,59.0,29.84,ENE,59,0.0,0.0,87,0.00,CLR,,0.02,0.0,WeatherDisplay:10.37,2013-04-30 04:42:00,
2013-04-29 23:47:00,62.9,58.6,29.84,NE,52,0.0,1.0,86,0.00,CLR,,0.02,0.0,WeatherDisplay:10.37,2013-04-30 04:47:00,
2013-04-29 23:52:00,62.8,58.5,29.84,NNE,24,0.0,0.0,86,0.00,CLR,,0.02,0.0,WeatherDisplay:10.37,2013-04-30 04:52:00,
2013-04-29 23:57:00,62.8,58.9,29.84,NNE,24,0.0,0.0,87,0.00,CLR,,0.02,0.0,WeatherDisplay:10.37,2013-04-30 04:57:00,